sensor_id;sensor_type;location;lat;lon;timestamp;P1;durP1;ratioP1;P2;durP2;ratioP2
22205;SDS011;11272;50.104;8.754;2022-07-25T00:02:20;11.87;;;8.70;;
22205;SDS011;11272;50.104;8.754;2022-07-25T00:04:46;13.67;;;9.70;;
22205;SDS011;11272;50.104;8.754;2022-07-25T00:07:12;11.00;;;9.07;;
22205;SDS011;11272;50.104;8.754;2022-07-25T00:09:38;11.40;;;9.17;;
22205;SDS011;11272;50.104;8.754;2022-07-25T00:12:04;12.00;;;9.17;;
22205;SDS011;11272;50.104;8.754;2022-07-25T00:14:30;13.83;;;9.20;;
22205;SDS011;11272;50.104;8.754;2022-07-25T00:16:56;14.27;;;9.50;;
22205;SDS011;11272;50.104;8.754;2022-07-25T00:19:22;12.00;;;9.83;;
22205;SDS011;11272;50.104;8.754;2022-07-25T00:21:50;12.83;;;8.87;;
22205;SDS011;11272;50.104;8.754;2022-07-25T00:24:17;11.77;;;9.13;;
22205;SDS011;11272;50.104;8.754;2022-07-25T00:26:43;14.83;;;9.80;;
22205;SDS011;11272;50.104;8.754;2022-07-25T00:29:09;11.77;;;8.53;;
22205;SDS011;11272;50.104;8.754;2022-07-25T00:31:35;13.23;;;9.17;;
22205;SDS011;11272;50.104;8.754;2022-07-25T00:34:01;14.27;;;8.93;;
22205;SDS011;11272;50.104;8.754;2022-07-25T00:36:28;10.77;;;9.07;;
22205;SDS011;11272;50.104;8.754;2022-07-25T00:38:54;15.20;;;9.10;;
22205;SDS011;11272;50.104;8.754;2022-07-25T00:41:22;13.90;;;8.70;;
22205;SDS011;11272;50.104;8.754;2022-07-25T00:43:48;11.20;;;9.20;;
22205;SDS011;11272;50.104;8.754;2022-07-25T00:46:15;12.53;;;9.73;;
22205;SDS011;11272;50.104;8.754;2022-07-25T00:48:42;11.80;;;9.17;;
22205;SDS011;11272;50.104;8.754;2022-07-25T00:51:09;14.13;;;9.77;;
22205;SDS011;11272;50.104;8.754;2022-07-25T00:53:36;13.00;;;9.43;;
22205;SDS011;11272;50.104;8.754;2022-07-25T00:56:03;14.27;;;9.57;;
22205;SDS011;11272;50.104;8.754;2022-07-25T00:58:30;12.70;;;8.80;;
22205;SDS011;11272;50.104;8.754;2022-07-25T01:00:57;12.73;;;9.40;;
22205;SDS011;11272;50.104;8.754;2022-07-25T01:03:24;12.77;;;9.77;;
22205;SDS011;11272;50.104;8.754;2022-07-25T01:05:49;12.00;;;9.20;;
22205;SDS011;11272;50.104;8.754;2022-07-25T01:08:16;13.03;;;8.80;;
22205;SDS011;11272;50.104;8.754;2022-07-25T01:10:44;11.70;;;8.63;;
22205;SDS011;11272;50.104;8.754;2022-07-25T01:13:11;10.67;;;9.03;;
22205;SDS011;11272;50.104;8.754;2022-07-25T01:15:38;14.07;;;9.73;;
22205;SDS011;11272;50.104;8.754;2022-07-25T01:18:04;11.10;;;8.90;;
22205;SDS011;11272;50.104;8.754;2022-07-25T01:20:31;14.73;;;8.97;;
22205;SDS011;11272;50.104;8.754;2022-07-25T01:22:58;14.70;;;9.20;;
22205;SDS011;11272;50.104;8.754;2022-07-25T01:25:25;14.53;;;9.53;;
22205;SDS011;11272;50.104;8.754;2022-07-25T01:27:53;13.57;;;9.70;;
22205;SDS011;11272;50.104;8.754;2022-07-25T01:30:20;13.07;;;9.03;;
22205;SDS011;11272;50.104;8.754;2022-07-25T01:32:46;14.87;;;10.00;;
22205;SDS011;11272;50.104;8.754;2022-07-25T01:35:13;15.57;;;10.07;;
22205;SDS011;11272;50.104;8.754;2022-07-25T01:37:40;12.67;;;9.70;;
22205;SDS011;11272;50.104;8.754;2022-07-25T01:40:06;15.23;;;9.10;;
22205;SDS011;11272;50.104;8.754;2022-07-25T01:42:33;14.60;;;10.30;;
22205;SDS011;11272;50.104;8.754;2022-07-25T01:44:59;13.93;;;10.60;;
22205;SDS011;11272;50.104;8.754;2022-07-25T01:47:25;14.47;;;10.47;;
22205;SDS011;11272;50.104;8.754;2022-07-25T01:49:51;12.93;;;9.87;;
22205;SDS011;11272;50.104;8.754;2022-07-25T01:52:17;12.47;;;10.33;;
22205;SDS011;11272;50.104;8.754;2022-07-25T01:54:43;12.53;;;9.80;;
22205;SDS011;11272;50.104;8.754;2022-07-25T01:57:09;14.97;;;10.10;;
22205;SDS011;11272;50.104;8.754;2022-07-25T01:59:37;15.30;;;10.60;;
22205;SDS011;11272;50.104;8.754;2022-07-25T02:02:04;15.80;;;10.20;;
22205;SDS011;11272;50.104;8.754;2022-07-25T02:04:31;14.30;;;9.93;;
22205;SDS011;11272;50.104;8.754;2022-07-25T02:06:58;15.50;;;10.50;;
22205;SDS011;11272;50.104;8.754;2022-07-25T02:09:25;12.10;;;10.07;;
22205;SDS011;11272;50.104;8.754;2022-07-25T02:11:50;13.57;;;9.83;;
22205;SDS011;11272;50.104;8.754;2022-07-25T02:14:19;12.63;;;10.20;;
22205;SDS011;11272;50.104;8.754;2022-07-25T02:16:45;13.40;;;9.97;;
22205;SDS011;11272;50.104;8.754;2022-07-25T02:19:11;14.60;;;10.70;;
22205;SDS011;11272;50.104;8.754;2022-07-25T02:21:36;13.87;;;10.37;;
22205;SDS011;11272;50.104;8.754;2022-07-25T02:24:02;12.43;;;9.93;;
22205;SDS011;11272;50.104;8.754;2022-07-25T02:26:28;11.33;;;9.40;;
22205;SDS011;11272;50.104;8.754;2022-07-25T02:28:55;13.43;;;9.63;;
22205;SDS011;11272;50.104;8.754;2022-07-25T02:31:21;13.30;;;9.27;;
22205;SDS011;11272;50.104;8.754;2022-07-25T02:33:47;10.43;;;8.87;;
22205;SDS011;11272;50.104;8.754;2022-07-25T02:36:13;11.97;;;9.30;;
22205;SDS011;11272;50.104;8.754;2022-07-25T02:38:39;10.90;;;9.13;;
22205;SDS011;11272;50.104;8.754;2022-07-25T02:41:04;14.10;;;9.63;;
22205;SDS011;11272;50.104;8.754;2022-07-25T02:43:30;15.63;;;9.40;;
22205;SDS011;11272;50.104;8.754;2022-07-25T02:45:56;11.73;;;9.20;;
22205;SDS011;11272;50.104;8.754;2022-07-25T02:48:21;11.47;;;8.87;;
22205;SDS011;11272;50.104;8.754;2022-07-25T02:50:47;13.33;;;9.03;;
22205;SDS011;11272;50.104;8.754;2022-07-25T02:53:12;11.50;;;8.77;;
22205;SDS011;11272;50.104;8.754;2022-07-25T02:55:38;13.53;;;9.20;;
22205;SDS011;11272;50.104;8.754;2022-07-25T02:58:03;14.00;;;9.10;;
22205;SDS011;11272;50.104;8.754;2022-07-25T03:00:29;11.33;;;9.40;;
22205;SDS011;11272;50.104;8.754;2022-07-25T03:02:55;12.77;;;8.90;;
22205;SDS011;11272;50.104;8.754;2022-07-25T03:05:21;11.40;;;8.47;;
22205;SDS011;11272;50.104;8.754;2022-07-25T03:07:50;11.97;;;8.50;;
22205;SDS011;11272;50.104;8.754;2022-07-25T03:10:15;10.80;;;8.47;;
22205;SDS011;11272;50.104;8.754;2022-07-25T03:12:41;10.53;;;8.97;;
22205;SDS011;11272;50.104;8.754;2022-07-25T03:15:07;11.40;;;8.47;;
22205;SDS011;11272;50.104;8.754;2022-07-25T03:17:34;12.93;;;9.10;;
22205;SDS011;11272;50.104;8.754;2022-07-25T03:20:00;11.07;;;9.03;;
22205;SDS011;11272;50.104;8.754;2022-07-25T03:22:26;12.70;;;9.80;;
22205;SDS011;11272;50.104;8.754;2022-07-25T03:24:51;14.87;;;9.53;;
22205;SDS011;11272;50.104;8.754;2022-07-25T03:27:17;11.73;;;9.13;;
22205;SDS011;11272;50.104;8.754;2022-07-25T03:29:43;11.47;;;8.93;;
22205;SDS011;11272;50.104;8.754;2022-07-25T03:32:08;12.20;;;8.50;;
22205;SDS011;11272;50.104;8.754;2022-07-25T03:34:34;13.50;;;8.93;;
22205;SDS011;11272;50.104;8.754;2022-07-25T03:37:01;11.90;;;8.83;;
22205;SDS011;11272;50.104;8.754;2022-07-25T03:39:26;12.97;;;9.30;;
22205;SDS011;11272;50.104;8.754;2022-07-25T03:41:52;12.23;;;9.20;;
22205;SDS011;11272;50.104;8.754;2022-07-25T03:44:19;12.87;;;9.27;;
22205;SDS011;11272;50.104;8.754;2022-07-25T03:46:45;15.63;;;8.83;;
22205;SDS011;11272;50.104;8.754;2022-07-25T03:49:11;10.53;;;8.97;;
22205;SDS011;11272;50.104;8.754;2022-07-25T03:51:36;15.67;;;9.40;;
22205;SDS011;11272;50.104;8.754;2022-07-25T03:54:02;10.30;;;8.40;;
22205;SDS011;11272;50.104;8.754;2022-07-25T03:56:37;13.07;;;9.60;;
22205;SDS011;11272;50.104;8.754;2022-07-25T03:59:05;12.57;;;8.77;;
22205;SDS011;11272;50.104;8.754;2022-07-25T04:01:31;15.40;;;10.87;;
22205;SDS011;11272;50.104;8.754;2022-07-25T04:03:57;12.87;;;9.57;;
22205;SDS011;11272;50.104;8.754;2022-07-25T04:06:23;12.20;;;8.63;;
22205;SDS011;11272;50.104;8.754;2022-07-25T04:08:49;13.80;;;8.97;;
22205;SDS011;11272;50.104;8.754;2022-07-25T04:11:15;12.23;;;9.17;;
22205;SDS011;11272;50.104;8.754;2022-07-25T04:13:41;14.13;;;9.13;;
22205;SDS011;11272;50.104;8.754;2022-07-25T04:16:07;13.40;;;9.20;;
22205;SDS011;11272;50.104;8.754;2022-07-25T04:18:33;15.77;;;9.60;;
22205;SDS011;11272;50.104;8.754;2022-07-25T04:20:59;12.53;;;9.47;;
22205;SDS011;11272;50.104;8.754;2022-07-25T04:23:26;13.17;;;9.57;;
22205;SDS011;11272;50.104;8.754;2022-07-25T04:25:53;11.10;;;8.83;;
22205;SDS011;11272;50.104;8.754;2022-07-25T04:28:19;15.20;;;9.47;;
22205;SDS011;11272;50.104;8.754;2022-07-25T04:30:44;15.07;;;10.30;;
22205;SDS011;11272;50.104;8.754;2022-07-25T04:33:11;15.77;;;9.63;;
22205;SDS011;11272;50.104;8.754;2022-07-25T04:35:37;12.57;;;9.37;;
22205;SDS011;11272;50.104;8.754;2022-07-25T04:38:03;14.57;;;10.00;;
22205;SDS011;11272;50.104;8.754;2022-07-25T04:40:29;11.70;;;9.40;;
22205;SDS011;11272;50.104;8.754;2022-07-25T04:42:55;13.70;;;10.30;;
22205;SDS011;11272;50.104;8.754;2022-07-25T04:45:21;13.37;;;9.80;;
22205;SDS011;11272;50.104;8.754;2022-07-25T04:47:47;14.90;;;9.83;;
22205;SDS011;11272;50.104;8.754;2022-07-25T04:50:13;12.93;;;10.00;;
22205;SDS011;11272;50.104;8.754;2022-07-25T04:52:39;15.57;;;10.50;;
22205;SDS011;11272;50.104;8.754;2022-07-25T04:55:06;14.70;;;10.33;;
22205;SDS011;11272;50.104;8.754;2022-07-25T04:57:31;13.33;;;9.73;;
22205;SDS011;11272;50.104;8.754;2022-07-25T04:59:57;12.33;;;9.70;;
22205;SDS011;11272;50.104;8.754;2022-07-25T05:02:26;11.77;;;10.00;;
22205;SDS011;11272;50.104;8.754;2022-07-25T05:04:52;13.90;;;9.33;;
22205;SDS011;11272;50.104;8.754;2022-07-25T05:07:18;14.70;;;10.60;;
22205;SDS011;11272;50.104;8.754;2022-07-25T05:09:44;15.93;;;10.20;;
22205;SDS011;11272;50.104;8.754;2022-07-25T05:12:10;13.70;;;9.93;;
22205;SDS011;11272;50.104;8.754;2022-07-25T05:14:36;11.50;;;9.53;;
22205;SDS011;11272;50.104;8.754;2022-07-25T05:17:02;15.13;;;9.87;;
22205;SDS011;11272;50.104;8.754;2022-07-25T05:19:28;11.70;;;8.73;;
22205;SDS011;11272;50.104;8.754;2022-07-25T05:21:53;12.77;;;10.13;;
22205;SDS011;11272;50.104;8.754;2022-07-25T05:24:19;13.97;;;9.93;;
22205;SDS011;11272;50.104;8.754;2022-07-25T05:26:44;12.80;;;10.07;;
22205;SDS011;11272;50.104;8.754;2022-07-25T05:29:09;16.23;;;9.70;;
22205;SDS011;11272;50.104;8.754;2022-07-25T05:31:36;14.43;;;10.00;;
22205;SDS011;11272;50.104;8.754;2022-07-25T05:34:02;14.10;;;9.70;;
22205;SDS011;11272;50.104;8.754;2022-07-25T05:36:28;12.23;;;9.63;;
22205;SDS011;11272;50.104;8.754;2022-07-25T05:38:55;15.30;;;9.60;;
22205;SDS011;11272;50.104;8.754;2022-07-25T05:41:21;12.20;;;9.53;;
22205;SDS011;11272;50.104;8.754;2022-07-25T05:43:46;14.07;;;10.27;;
22205;SDS011;11272;50.104;8.754;2022-07-25T05:46:13;13.47;;;9.40;;
22205;SDS011;11272;50.104;8.754;2022-07-25T05:48:41;12.33;;;9.50;;
22205;SDS011;11272;50.104;8.754;2022-07-25T05:51:07;13.70;;;9.73;;
22205;SDS011;11272;50.104;8.754;2022-07-25T05:53:33;18.23;;;9.60;;
22205;SDS011;11272;50.104;8.754;2022-07-25T05:55:59;12.50;;;10.00;;
22205;SDS011;11272;50.104;8.754;2022-07-25T05:58:25;14.37;;;9.53;;
22205;SDS011;11272;50.104;8.754;2022-07-25T06:00:50;12.30;;;9.63;;
22205;SDS011;11272;50.104;8.754;2022-07-25T06:03:16;12.83;;;9.70;;
22205;SDS011;11272;50.104;8.754;2022-07-25T06:05:43;12.30;;;9.63;;
22205;SDS011;11272;50.104;8.754;2022-07-25T06:08:13;14.40;;;9.60;;
22205;SDS011;11272;50.104;8.754;2022-07-25T06:10:40;14.93;;;9.63;;
22205;SDS011;11272;50.104;8.754;2022-07-25T06:13:06;12.73;;;10.03;;
22205;SDS011;11272;50.104;8.754;2022-07-25T06:15:32;12.00;;;9.63;;
22205;SDS011;11272;50.104;8.754;2022-07-25T06:17:58;13.23;;;9.20;;
22205;SDS011;11272;50.104;8.754;2022-07-25T06:20:24;13.77;;;9.27;;
22205;SDS011;11272;50.104;8.754;2022-07-25T06:22:49;12.20;;;9.70;;
22205;SDS011;11272;50.104;8.754;2022-07-25T06:25:15;14.83;;;9.70;;
22205;SDS011;11272;50.104;8.754;2022-07-25T06:27:41;11.20;;;8.97;;
22205;SDS011;11272;50.104;8.754;2022-07-25T06:30:07;15.23;;;9.93;;
22205;SDS011;11272;50.104;8.754;2022-07-25T06:32:36;13.93;;;9.32;;
22205;SDS011;11272;50.104;8.754;2022-07-25T06:35:05;12.32;;;9.27;;
22205;SDS011;11272;50.104;8.754;2022-07-25T06:37:31;14.35;;;9.15;;
22205;SDS011;11272;50.104;8.754;2022-07-25T06:39:56;9.75;;;8.65;;
22205;SDS011;11272;50.104;8.754;2022-07-25T06:42:24;11.13;;;8.65;;
22205;SDS011;11272;50.104;8.754;2022-07-25T06:44:50;11.75;;;8.73;;
22205;SDS011;11272;50.104;8.754;2022-07-25T06:47:17;11.00;;;8.85;;
22205;SDS011;11272;50.104;8.754;2022-07-25T06:49:43;15.20;;;8.50;;
22205;SDS011;11272;50.104;8.754;2022-07-25T06:52:09;10.95;;;8.52;;
22205;SDS011;11272;50.104;8.754;2022-07-25T06:54:35;11.45;;;8.40;;
22205;SDS011;11272;50.104;8.754;2022-07-25T06:57:01;9.45;;;7.70;;
22205;SDS011;11272;50.104;8.754;2022-07-25T06:59:27;12.15;;;7.95;;
22205;SDS011;11272;50.104;8.754;2022-07-25T07:01:52;9.80;;;7.75;;
22205;SDS011;11272;50.104;8.754;2022-07-25T07:04:18;10.93;;;8.55;;
22205;SDS011;11272;50.104;8.754;2022-07-25T07:06:43;11.35;;;8.05;;
22205;SDS011;11272;50.104;8.754;2022-07-25T07:09:09;16.38;;;8.82;;
22205;SDS011;11272;50.104;8.754;2022-07-25T07:11:34;11.73;;;8.02;;
22205;SDS011;11272;50.104;8.754;2022-07-25T07:14:03;8.98;;;7.45;;
22205;SDS011;11272;50.104;8.754;2022-07-25T07:16:29;9.45;;;7.32;;
22205;SDS011;11272;50.104;8.754;2022-07-25T07:18:56;11.98;;;6.93;;
22205;SDS011;11272;50.104;8.754;2022-07-25T07:21:22;10.18;;;7.38;;
22205;SDS011;11272;50.104;8.754;2022-07-25T07:23:48;11.15;;;7.35;;
22205;SDS011;11272;50.104;8.754;2022-07-25T07:26:14;9.23;;;6.90;;
22205;SDS011;11272;50.104;8.754;2022-07-25T07:28:40;13.73;;;6.85;;
22205;SDS011;11272;50.104;8.754;2022-07-25T07:31:06;12.48;;;7.43;;
22205;SDS011;11272;50.104;8.754;2022-07-25T07:33:36;13.25;;;8.20;;
22205;SDS011;11272;50.104;8.754;2022-07-25T07:36:01;8.23;;;7.35;;
22205;SDS011;11272;50.104;8.754;2022-07-25T07:38:27;7.90;;;7.10;;
22205;SDS011;11272;50.104;8.754;2022-07-25T07:40:53;8.63;;;7.18;;
22205;SDS011;11272;50.104;8.754;2022-07-25T07:43:18;8.40;;;7.30;;
22205;SDS011;11272;50.104;8.754;2022-07-25T07:45:44;12.18;;;7.43;;
22205;SDS011;11272;50.104;8.754;2022-07-25T07:48:10;11.40;;;7.50;;
22205;SDS011;11272;50.104;8.754;2022-07-25T07:50:36;8.85;;;7.35;;
22205;SDS011;11272;50.104;8.754;2022-07-25T07:53:01;10.30;;;7.03;;
22205;SDS011;11272;50.104;8.754;2022-07-25T07:55:27;11.10;;;7.50;;
22205;SDS011;11272;50.104;8.754;2022-07-25T07:58:13;12.52;;;7.63;;
22205;SDS011;11272;50.104;8.754;2022-07-25T08:00:40;8.77;;;7.60;;
22205;SDS011;11272;50.104;8.754;2022-07-25T08:03:07;14.07;;;7.28;;
22205;SDS011;11272;50.104;8.754;2022-07-25T08:05:34;9.60;;;7.15;;
22205;SDS011;11272;50.104;8.754;2022-07-25T08:08:03;9.30;;;7.20;;
22205;SDS011;11272;50.104;8.754;2022-07-25T08:10:31;8.27;;;6.93;;
22205;SDS011;11272;50.104;8.754;2022-07-25T08:13:00;9.38;;;7.30;;
22205;SDS011;11272;50.104;8.754;2022-07-25T08:15:27;13.25;;;7.65;;
22205;SDS011;11272;50.104;8.754;2022-07-25T08:17:53;8.70;;;7.15;;
22205;SDS011;11272;50.104;8.754;2022-07-25T08:20:19;8.45;;;6.97;;
22205;SDS011;11272;50.104;8.754;2022-07-25T08:22:47;9.40;;;7.10;;
22205;SDS011;11272;50.104;8.754;2022-07-25T08:25:15;8.93;;;7.32;;
22205;SDS011;11272;50.104;8.754;2022-07-25T08:27:44;7.82;;;6.72;;
22205;SDS011;11272;50.104;8.754;2022-07-25T08:30:11;8.68;;;7.85;;
22205;SDS011;11272;50.104;8.754;2022-07-25T08:32:57;10.52;;;6.80;;
22205;SDS011;11272;50.104;8.754;2022-07-25T08:35:25;9.60;;;7.32;;
22205;SDS011;11272;50.104;8.754;2022-07-25T08:37:53;9.15;;;7.18;;
22205;SDS011;11272;50.104;8.754;2022-07-25T08:40:20;8.02;;;7.10;;
22205;SDS011;11272;50.104;8.754;2022-07-25T08:42:48;8.05;;;6.55;;
22205;SDS011;11272;50.104;8.754;2022-07-25T08:45:17;9.35;;;7.72;;
22205;SDS011;11272;50.104;8.754;2022-07-25T08:47:47;11.13;;;7.93;;
22205;SDS011;11272;50.104;8.754;2022-07-25T08:50:14;8.18;;;7.28;;
22205;SDS011;11272;50.104;8.754;2022-07-25T08:52:42;10.07;;;7.60;;
22205;SDS011;11272;50.104;8.754;2022-07-25T08:55:12;11.70;;;7.70;;
22205;SDS011;11272;50.104;8.754;2022-07-25T08:57:41;10.20;;;7.93;;
22205;SDS011;11272;50.104;8.754;2022-07-25T09:00:08;9.63;;;7.25;;
22205;SDS011;11272;50.104;8.754;2022-07-25T09:02:38;9.75;;;7.30;;
22205;SDS011;11272;50.104;8.754;2022-07-25T09:05:04;9.70;;;7.15;;
22205;SDS011;11272;50.104;8.754;2022-07-25T09:07:33;10.07;;;7.70;;
22205;SDS011;11272;50.104;8.754;2022-07-25T09:12:38;9.88;;;7.10;;
22205;SDS011;11272;50.104;8.754;2022-07-25T09:15:04;7.40;;;6.70;;
22205;SDS011;11272;50.104;8.754;2022-07-25T09:17:33;7.78;;;6.90;;
22205;SDS011;11272;50.104;8.754;2022-07-25T09:20:01;8.63;;;7.72;;
22205;SDS011;11272;50.104;8.754;2022-07-25T09:22:29;8.15;;;6.88;;
22205;SDS011;11272;50.104;8.754;2022-07-25T09:24:54;9.50;;;6.78;;
22205;SDS011;11272;50.104;8.754;2022-07-25T09:27:20;8.18;;;7.38;;
22205;SDS011;11272;50.104;8.754;2022-07-25T09:29:45;9.20;;;6.88;;
22205;SDS011;11272;50.104;8.754;2022-07-25T09:32:15;8.00;;;7.10;;
22205;SDS011;11272;50.104;8.754;2022-07-25T09:34:43;11.27;;;7.38;;
22205;SDS011;11272;50.104;8.754;2022-07-25T09:37:11;8.25;;;7.10;;
22205;SDS011;11272;50.104;8.754;2022-07-25T09:42:29;8.90;;;7.15;;
22205;SDS011;11272;50.104;8.754;2022-07-25T09:45:05;9.05;;;6.80;;
22205;SDS011;11272;50.104;8.754;2022-07-25T09:47:32;8.43;;;6.80;;
22205;SDS011;11272;50.104;8.754;2022-07-25T09:49:59;10.80;;;6.80;;
22205;SDS011;11272;50.104;8.754;2022-07-25T09:52:25;8.48;;;7.60;;
22205;SDS011;11272;50.104;8.754;2022-07-25T09:54:50;9.02;;;6.53;;
22205;SDS011;11272;50.104;8.754;2022-07-25T09:57:16;9.65;;;6.88;;
22205;SDS011;11272;50.104;8.754;2022-07-25T09:59:41;8.20;;;7.40;;
22205;SDS011;11272;50.104;8.754;2022-07-25T10:04:50;8.80;;;6.35;;
22205;SDS011;11272;50.104;8.754;2022-07-25T10:07:35;8.90;;;7.05;;
22205;SDS011;11272;50.104;8.754;2022-07-25T10:10:02;7.55;;;6.85;;
22205;SDS011;11272;50.104;8.754;2022-07-25T10:12:29;12.20;;;7.25;;
22205;SDS011;11272;50.104;8.754;2022-07-25T10:15:05;8.95;;;7.18;;
22205;SDS011;11272;50.104;8.754;2022-07-25T10:17:36;8.90;;;7.50;;
22205;SDS011;11272;50.104;8.754;2022-07-25T10:20:03;9.73;;;7.20;;
22205;SDS011;11272;50.104;8.754;2022-07-25T10:22:37;8.07;;;7.28;;
22205;SDS011;11272;50.104;8.754;2022-07-25T10:25:14;8.43;;;7.18;;
22205;SDS011;11272;50.104;8.754;2022-07-25T10:27:42;11.95;;;7.22;;
22205;SDS011;11272;50.104;8.754;2022-07-25T10:30:23;8.52;;;7.22;;
22205;SDS011;11272;50.104;8.754;2022-07-25T10:32:58;8.98;;;7.40;;
22205;SDS011;11272;50.104;8.754;2022-07-25T10:35:29;7.90;;;7.07;;
22205;SDS011;11272;50.104;8.754;2022-07-25T10:37:57;11.38;;;7.03;;
22205;SDS011;11272;50.104;8.754;2022-07-25T10:40:27;8.48;;;7.05;;
22205;SDS011;11272;50.104;8.754;2022-07-25T10:45:43;8.88;;;7.35;;
22205;SDS011;11272;50.104;8.754;2022-07-25T10:48:24;9.82;;;7.05;;
22205;SDS011;11272;50.104;8.754;2022-07-25T10:51:02;10.05;;;7.20;;
22205;SDS011;11272;50.104;8.754;2022-07-25T10:53:46;9.00;;;6.65;;
22205;SDS011;11272;50.104;8.754;2022-07-25T10:56:14;7.68;;;6.93;;
22205;SDS011;11272;50.104;8.754;2022-07-25T10:58:40;8.63;;;7.05;;
22205;SDS011;11272;50.104;8.754;2022-07-25T11:01:10;7.13;;;6.43;;
22205;SDS011;11272;50.104;8.754;2022-07-25T11:03:39;7.22;;;6.07;;
22205;SDS011;11272;50.104;8.754;2022-07-25T11:06:11;8.38;;;6.88;;
22205;SDS011;11272;50.104;8.754;2022-07-25T11:08:39;6.60;;;5.95;;
22205;SDS011;11272;50.104;8.754;2022-07-25T11:11:05;6.97;;;6.28;;
22205;SDS011;11272;50.104;8.754;2022-07-25T11:13:35;7.53;;;6.63;;
22205;SDS011;11272;50.104;8.754;2022-07-25T11:16:02;8.40;;;6.25;;
22205;SDS011;11272;50.104;8.754;2022-07-25T11:18:38;7.50;;;6.70;;
22205;SDS011;11272;50.104;8.754;2022-07-25T11:21:05;7.82;;;6.70;;
22205;SDS011;11272;50.104;8.754;2022-07-25T11:23:35;7.75;;;6.95;;
22205;SDS011;11272;50.104;8.754;2022-07-25T11:26:08;12.65;;;6.60;;
22205;SDS011;11272;50.104;8.754;2022-07-25T11:28:39;11.90;;;6.60;;
22205;SDS011;11272;50.104;8.754;2022-07-25T11:31:06;6.90;;;6.20;;
22205;SDS011;11272;50.104;8.754;2022-07-25T11:33:32;10.27;;;6.45;;
22205;SDS011;11272;50.104;8.754;2022-07-25T11:35:59;9.05;;;6.55;;
22205;SDS011;11272;50.104;8.754;2022-07-25T11:38:25;8.85;;;6.15;;
22205;SDS011;11272;50.104;8.754;2022-07-25T11:40:51;8.07;;;6.55;;
22205;SDS011;11272;50.104;8.754;2022-07-25T11:43:21;8.32;;;6.93;;
22205;SDS011;11272;50.104;8.754;2022-07-25T11:45:57;9.68;;;6.88;;
22205;SDS011;11272;50.104;8.754;2022-07-25T11:48:32;9.48;;;6.68;;
22205;SDS011;11272;50.104;8.754;2022-07-25T11:51:06;8.75;;;6.80;;
22205;SDS011;11272;50.104;8.754;2022-07-25T11:53:38;8.77;;;6.50;;
22205;SDS011;11272;50.104;8.754;2022-07-25T11:56:12;7.20;;;6.50;;
22205;SDS011;11272;50.104;8.754;2022-07-25T11:58:57;8.48;;;6.38;;
22205;SDS011;11272;50.104;8.754;2022-07-25T12:01:24;7.70;;;6.25;;
22205;SDS011;11272;50.104;8.754;2022-07-25T12:03:50;7.25;;;6.55;;
22205;SDS011;11272;50.104;8.754;2022-07-25T12:06:18;10.32;;;6.82;;
22205;SDS011;11272;50.104;8.754;2022-07-25T12:08:44;9.10;;;6.68;;
22205;SDS011;11272;50.104;8.754;2022-07-25T12:11:21;9.52;;;6.85;;
22205;SDS011;11272;50.104;8.754;2022-07-25T12:13:47;8.77;;;6.75;;
22205;SDS011;11272;50.104;8.754;2022-07-25T12:16:14;7.88;;;7.07;;
22205;SDS011;11272;50.104;8.754;2022-07-25T12:18:41;10.88;;;7.13;;
22205;SDS011;11272;50.104;8.754;2022-07-25T12:21:06;9.07;;;6.78;;
22205;SDS011;11272;50.104;8.754;2022-07-25T12:23:33;8.45;;;6.68;;
22205;SDS011;11272;50.104;8.754;2022-07-25T12:25:58;8.77;;;6.63;;
22205;SDS011;11272;50.104;8.754;2022-07-25T12:28:25;7.35;;;6.65;;
22205;SDS011;11272;50.104;8.754;2022-07-25T12:30:52;10.68;;;6.38;;
22205;SDS011;11272;50.104;8.754;2022-07-25T12:33:18;5.70;;;5.15;;
22205;SDS011;11272;50.104;8.754;2022-07-25T12:35:44;5.50;;;4.60;;
22205;SDS011;11272;50.104;8.754;2022-07-25T12:38:10;5.53;;;4.38;;
22205;SDS011;11272;50.104;8.754;2022-07-25T12:40:35;6.50;;;4.40;;
22205;SDS011;11272;50.104;8.754;2022-07-25T12:43:02;6.53;;;4.15;;
22205;SDS011;11272;50.104;8.754;2022-07-25T12:45:28;6.00;;;5.40;;
22205;SDS011;11272;50.104;8.754;2022-07-25T12:47:54;5.03;;;4.47;;
22205;SDS011;11272;50.104;8.754;2022-07-25T12:50:20;5.30;;;4.80;;
22205;SDS011;11272;50.104;8.754;2022-07-25T12:52:49;5.18;;;4.68;;
22205;SDS011;11272;50.104;8.754;2022-07-25T12:55:16;6.10;;;5.13;;
22205;SDS011;11272;50.104;8.754;2022-07-25T12:57:43;5.57;;;5.00;;
22205;SDS011;11272;50.104;8.754;2022-07-25T13:00:11;6.30;;;4.50;;
22205;SDS011;11272;50.104;8.754;2022-07-25T13:02:42;9.50;;;5.05;;
22205;SDS011;11272;50.104;8.754;2022-07-25T13:05:08;5.47;;;4.95;;
22205;SDS011;11272;50.104;8.754;2022-07-25T13:07:34;5.53;;;4.47;;
22205;SDS011;11272;50.104;8.754;2022-07-25T13:10:00;6.45;;;4.90;;
22205;SDS011;11272;50.104;8.754;2022-07-25T13:12:27;7.07;;;5.18;;
22205;SDS011;11272;50.104;8.754;2022-07-25T13:14:56;5.28;;;4.47;;
22205;SDS011;11272;50.104;8.754;2022-07-25T13:17:22;7.97;;;5.35;;
22205;SDS011;11272;50.104;8.754;2022-07-25T13:19:47;7.53;;;4.80;;
22205;SDS011;11272;50.104;8.754;2022-07-25T13:22:13;8.10;;;4.88;;
22205;SDS011;11272;50.104;8.754;2022-07-25T13:24:39;6.57;;;4.45;;
22205;SDS011;11272;50.104;8.754;2022-07-25T13:27:05;7.75;;;4.90;;
22205;SDS011;11272;50.104;8.754;2022-07-25T13:29:34;6.80;;;4.55;;
22205;SDS011;11272;50.104;8.754;2022-07-25T13:32:00;6.85;;;5.28;;
22205;SDS011;11272;50.104;8.754;2022-07-25T13:34:26;6.38;;;5.03;;
22205;SDS011;11272;50.104;8.754;2022-07-25T13:36:52;5.80;;;5.10;;
22205;SDS011;11272;50.104;8.754;2022-07-25T13:39:17;5.72;;;4.60;;
22205;SDS011;11272;50.104;8.754;2022-07-25T13:41:46;5.18;;;4.68;;
22205;SDS011;11272;50.104;8.754;2022-07-25T13:44:14;6.72;;;5.00;;
22205;SDS011;11272;50.104;8.754;2022-07-25T13:46:42;6.18;;;5.20;;
22205;SDS011;11272;50.104;8.754;2022-07-25T13:49:09;9.27;;;5.50;;
22205;SDS011;11272;50.104;8.754;2022-07-25T13:51:35;6.95;;;5.45;;
22205;SDS011;11272;50.104;8.754;2022-07-25T13:54:01;9.20;;;5.60;;
22205;SDS011;11272;50.104;8.754;2022-07-25T13:56:28;8.52;;;5.40;;
22205;SDS011;11272;50.104;8.754;2022-07-25T13:58:55;6.80;;;4.88;;
22205;SDS011;11272;50.104;8.754;2022-07-25T14:01:20;5.50;;;4.60;;
22205;SDS011;11272;50.104;8.754;2022-07-25T14:03:46;8.52;;;4.88;;
22205;SDS011;11272;50.104;8.754;2022-07-25T14:06:12;5.20;;;4.70;;
22205;SDS011;11272;50.104;8.754;2022-07-25T14:08:38;9.35;;;4.95;;
22205;SDS011;11272;50.104;8.754;2022-07-25T14:11:05;5.25;;;4.72;;
22205;SDS011;11272;50.104;8.754;2022-07-25T14:13:31;5.65;;;5.05;;
22205;SDS011;11272;50.104;8.754;2022-07-25T14:15:57;6.57;;;5.20;;
22205;SDS011;11272;50.104;8.754;2022-07-25T14:18:23;7.13;;;4.90;;
22205;SDS011;11272;50.104;8.754;2022-07-25T14:20:49;11.30;;;5.05;;
22205;SDS011;11272;50.104;8.754;2022-07-25T14:23:15;7.38;;;4.80;;
22205;SDS011;11272;50.104;8.754;2022-07-25T14:25:41;8.23;;;5.03;;
22205;SDS011;11272;50.104;8.754;2022-07-25T14:28:07;6.90;;;5.10;;
22205;SDS011;11272;50.104;8.754;2022-07-25T14:30:33;4.78;;;4.30;;
22205;SDS011;11272;50.104;8.754;2022-07-25T14:32:58;11.15;;;5.00;;
22205;SDS011;11272;50.104;8.754;2022-07-25T14:35:24;6.75;;;5.00;;
22205;SDS011;11272;50.104;8.754;2022-07-25T14:37:50;8.07;;;5.30;;
22205;SDS011;11272;50.104;8.754;2022-07-25T14:40:16;7.72;;;5.15;;
22205;SDS011;11272;50.104;8.754;2022-07-25T14:42:42;7.10;;;4.97;;
22205;SDS011;11272;50.104;8.754;2022-07-25T14:45:09;7.82;;;4.80;;
22205;SDS011;11272;50.104;8.754;2022-07-25T14:47:34;6.18;;;5.05;;
22205;SDS011;11272;50.104;8.754;2022-07-25T14:50:00;5.38;;;4.88;;